sensor_id;sensor_type;location;lat;lon;timestamp;temperature;humidity
22202;DHT22;11266;51.522;6.302;2023-01-13T00:00:42;9.70;99.90
22202;DHT22;11266;51.522;6.302;2023-01-13T00:01:28;9.60;99.90
22202;DHT22;11266;51.522;6.302;2023-01-13T00:02:13;9.60;99.90
22202;DHT22;11266;51.522;6.302;2023-01-13T00:03:01;9.60;99.90
22202;DHT22;11266;51.522;6.302;2023-01-13T00:03:47;9.60;99.90
22202;DHT22;11266;51.522;6.302;2023-01-13T00:04:33;9.70;99.90
22202;DHT22;11266;51.522;6.302;2023-01-13T00:05:19;9.70;99.90
22202;DHT22;11266;51.522;6.302;2023-01-13T00:06:05;9.70;99.90
22202;DHT22;11266;51.522;6.302;2023-01-13T00:06:53;9.60;99.90
22202;DHT22;11266;51.522;6.302;2023-01-13T00:07:39;9.60;99.90
22202;DHT22;11266;51.522;6.302;2023-01-13T00:08:24;9.60;99.90
22202;DHT22;11266;51.522;6.302;2023-01-13T00:09:10;9.50;99.90
22202;DHT22;11266;51.522;6.302;2023-01-13T00:09:55;9.50;99.90
22202;DHT22;11266;51.522;6.302;2023-01-13T00:10:46;9.60;99.90
22202;DHT22;11266;51.522;6.302;2023-01-13T00:11:32;9.70;99.90
22202;DHT22;11266;51.522;6.302;2023-01-13T00:12:18;9.60;99.90
22202;DHT22;11266;51.522;6.302;2023-01-13T00:13:04;9.70;99.90
22202;DHT22;11266;51.522;6.302;2023-01-13T00:13:50;9.70;99.90
22202;DHT22;11266;51.522;6.302;2023-01-13T00:14:36;9.70;99.90
22202;DHT22;11266;51.522;6.302;2023-01-13T00:15:21;9.70;99.90
22202;DHT22;11266;51.522;6.302;2023-01-13T00:16:13;9.60;99.90
22202;DHT22;11266;51.522;6.302;2023-01-13T00:17:03;9.60;99.90
22202;DHT22;11266;51.522;6.302;2023-01-13T00:17:48;9.60;99.90
22202;DHT22;11266;51.522;6.302;2023-01-13T00:18:34;9.50;99.90
22202;DHT22;11266;51.522;6.302;2023-01-13T00:19:23;9.50;99.90
22202;DHT22;11266;51.522;6.302;2023-01-13T00:20:09;9.50;99.90
22202;DHT22;11266;51.522;6.302;2023-01-13T00:21:21;9.50;99.90
22202;DHT22;11266;51.522;6.302;2023-01-13T00:22:07;9.50;99.90
22202;DHT22;11266;51.522;6.302;2023-01-13T00:22:52;9.50;99.90
22202;DHT22;11266;51.522;6.302;2023-01-13T00:23:39;9.50;99.90
22202;DHT22;11266;51.522;6.302;2023-01-13T00:24:25;9.50;99.90
22202;DHT22;11266;51.522;6.302;2023-01-13T00:25:15;9.50;99.90
22202;DHT22;11266;51.522;6.302;2023-01-13T00:26:04;9.70;99.90
22202;DHT22;11266;51.522;6.302;2023-01-13T00:26:50;9.60;99.90
22202;DHT22;11266;51.522;6.302;2023-01-13T00:27:37;9.60;99.90
22202;DHT22;11266;51.522;6.302;2023-01-13T00:28:24;9.60;99.90
22202;DHT22;11266;51.522;6.302;2023-01-13T00:29:09;9.50;99.90
22202;DHT22;11266;51.522;6.302;2023-01-13T00:29:55;9.50;99.90
22202;DHT22;11266;51.522;6.302;2023-01-13T00:30:41;9.40;99.90
22202;DHT22;11266;51.522;6.302;2023-01-13T00:31:27;9.40;99.90
22202;DHT22;11266;51.522;6.302;2023-01-13T00:32:13;9.50;99.90
22202;DHT22;11266;51.522;6.302;2023-01-13T00:32:59;9.50;99.90
22202;DHT22;11266;51.522;6.302;2023-01-13T00:33:45;9.40;99.90
22202;DHT22;11266;51.522;6.302;2023-01-13T00:34:35;9.40;99.90
22202;DHT22;11266;51.522;6.302;2023-01-13T00:35:20;9.40;99.90
22202;DHT22;11266;51.522;6.302;2023-01-13T00:36:07;9.40;99.90
22202;DHT22;11266;51.522;6.302;2023-01-13T00:36:53;9.50;99.90
22202;DHT22;11266;51.522;6.302;2023-01-13T00:37:38;9.50;99.90
22202;DHT22;11266;51.522;6.302;2023-01-13T00:38:25;9.50;99.90
22202;DHT22;11266;51.522;6.302;2023-01-13T00:39:11;9.60;99.90
22202;DHT22;11266;51.522;6.302;2023-01-13T00:39:57;9.80;99.90
22202;DHT22;11266;51.522;6.302;2023-01-13T00:40:42;9.80;99.90
22202;DHT22;11266;51.522;6.302;2023-01-13T00:41:28;9.80;99.90
22202;DHT22;11266;51.522;6.302;2023-01-13T00:42:34;9.70;99.90
22202;DHT22;11266;51.522;6.302;2023-01-13T00:43:38;9.60;99.90
22202;DHT22;11266;51.522;6.302;2023-01-13T00:44:26;9.60;99.90
22202;DHT22;11266;51.522;6.302;2023-01-13T00:45:12;9.60;99.90
22202;DHT22;11266;51.522;6.302;2023-01-13T00:45:57;9.50;99.90
22202;DHT22;11266;51.522;6.302;2023-01-13T00:46:43;9.50;99.90
22202;DHT22;11266;51.522;6.302;2023-01-13T00:47:29;9.50;99.90
22202;DHT22;11266;51.522;6.302;2023-01-13T00:48:17;9.60;99.90
22202;DHT22;11266;51.522;6.302;2023-01-13T00:49:03;9.60;99.90
22202;DHT22;11266;51.522;6.302;2023-01-13T00:49:49;9.50;99.90
22202;DHT22;11266;51.522;6.302;2023-01-13T00:50:34;9.50;99.90
22202;DHT22;11266;51.522;6.302;2023-01-13T00:51:20;9.50;99.90
22202;DHT22;11266;51.522;6.302;2023-01-13T00:52:06;9.50;99.90
22202;DHT22;11266;51.522;6.302;2023-01-13T00:52:51;9.50;99.90
22202;DHT22;11266;51.522;6.302;2023-01-13T00:53:42;9.50;99.90
22202;DHT22;11266;51.522;6.302;2023-01-13T00:54:31;9.50;99.90
22202;DHT22;11266;51.522;6.302;2023-01-13T00:55:21;9.50;99.90
22202;DHT22;11266;51.522;6.302;2023-01-13T00:56:22;9.50;99.90
22202;DHT22;11266;51.522;6.302;2023-01-13T00:57:08;9.40;99.90
22202;DHT22;11266;51.522;6.302;2023-01-13T00:57:53;9.50;99.90
22202;DHT22;11266;51.522;6.302;2023-01-13T00:58:42;9.50;99.90
22202;DHT22;11266;51.522;6.302;2023-01-13T00:59:30;9.60;99.90
22202;DHT22;11266;51.522;6.302;2023-01-13T01:00:16;9.50;99.90
22202;DHT22;11266;51.522;6.302;2023-01-13T01:01:08;9.50;99.90
22202;DHT22;11266;51.522;6.302;2023-01-13T01:01:53;9.50;99.90
22202;DHT22;11266;51.522;6.302;2023-01-13T01:02:39;9.40;99.90
22202;DHT22;11266;51.522;6.302;2023-01-13T01:03:25;9.30;99.90
22202;DHT22;11266;51.522;6.302;2023-01-13T01:04:13;9.30;99.90
22202;DHT22;11266;51.522;6.302;2023-01-13T01:04:59;9.30;99.90
22202;DHT22;11266;51.522;6.302;2023-01-13T01:05:46;9.20;99.90
22202;DHT22;11266;51.522;6.302;2023-01-13T01:06:32;9.20;99.90
22202;DHT22;11266;51.522;6.302;2023-01-13T01:07:18;9.20;99.90
22202;DHT22;11266;51.522;6.302;2023-01-13T01:08:04;9.20;99.90
22202;DHT22;11266;51.522;6.302;2023-01-13T01:08:51;9.10;99.90
22202;DHT22;11266;51.522;6.302;2023-01-13T01:09:39;9.10;99.90
22202;DHT22;11266;51.522;6.302;2023-01-13T01:10:25;9.10;99.90
22202;DHT22;11266;51.522;6.302;2023-01-13T01:11:15;9.10;99.90
22202;DHT22;11266;51.522;6.302;2023-01-13T01:12:01;9.10;99.90
22202;DHT22;11266;51.522;6.302;2023-01-13T01:12:47;9.00;99.90
22202;DHT22;11266;51.522;6.302;2023-01-13T01:13:35;9.00;99.90
22202;DHT22;11266;51.522;6.302;2023-01-13T01:14:21;9.00;99.90
22202;DHT22;11266;51.522;6.302;2023-01-13T01:15:09;9.00;99.90
22202;DHT22;11266;51.522;6.302;2023-01-13T01:15:55;9.00;99.90
22202;DHT22;11266;51.522;6.302;2023-01-13T01:16:43;8.90;99.90
22202;DHT22;11266;51.522;6.302;2023-01-13T01:17:29;8.90;99.90
22202;DHT22;11266;51.522;6.302;2023-01-13T01:18:14;8.90;99.90
22202;DHT22;11266;51.522;6.302;2023-01-13T01:19:00;8.90;99.90
22202;DHT22;11266;51.522;6.302;2023-01-13T01:19:46;8.90;99.90
22202;DHT22;11266;51.522;6.302;2023-01-13T01:20:31;9.00;99.90
22202;DHT22;11266;51.522;6.302;2023-01-13T01:21:19;9.00;99.90
22202;DHT22;11266;51.522;6.302;2023-01-13T01:22:08;9.00;99.90
22202;DHT22;11266;51.522;6.302;2023-01-13T01:22:54;8.90;99.90
22202;DHT22;11266;51.522;6.302;2023-01-13T01:23:40;8.90;99.90
22202;DHT22;11266;51.522;6.302;2023-01-13T01:24:26;8.90;99.90
22202;DHT22;11266;51.522;6.302;2023-01-13T01:25:11;8.90;99.90
22202;DHT22;11266;51.522;6.302;2023-01-13T01:26:06;8.80;99.90
22202;DHT22;11266;51.522;6.302;2023-01-13T01:26:51;8.80;99.90
22202;DHT22;11266;51.522;6.302;2023-01-13T01:27:37;8.80;99.90
22202;DHT22;11266;51.522;6.302;2023-01-13T01:28:22;8.80;99.90
22202;DHT22;11266;51.522;6.302;2023-01-13T01:29:13;8.80;99.90
22202;DHT22;11266;51.522;6.302;2023-01-13T01:29:59;8.70;99.90
22202;DHT22;11266;51.522;6.302;2023-01-13T01:30:45;8.70;99.90
22202;DHT22;11266;51.522;6.302;2023-01-13T01:31:32;8.70;99.90
22202;DHT22;11266;51.522;6.302;2023-01-13T01:32:17;8.70;99.90
22202;DHT22;11266;51.522;6.302;2023-01-13T01:33:03;8.70;99.90
22202;DHT22;11266;51.522;6.302;2023-01-13T01:33:49;8.80;99.90
22202;DHT22;11266;51.522;6.302;2023-01-13T01:34:35;8.80;99.90
22202;DHT22;11266;51.522;6.302;2023-01-13T01:35:20;8.70;99.90
22202;DHT22;11266;51.522;6.302;2023-01-13T01:36:07;8.70;99.90
22202;DHT22;11266;51.522;6.302;2023-01-13T01:36:53;8.70;99.90
22202;DHT22;11266;51.522;6.302;2023-01-13T01:37:39;8.70;99.90
22202;DHT22;11266;51.522;6.302;2023-01-13T01:38:24;8.70;99.90
22202;DHT22;11266;51.522;6.302;2023-01-13T01:39:10;8.70;99.90
22202;DHT22;11266;51.522;6.302;2023-01-13T01:39:55;8.70;99.90
22202;DHT22;11266;51.522;6.302;2023-01-13T01:40:41;8.70;99.90
22202;DHT22;11266;51.522;6.302;2023-01-13T01:41:30;8.70;99.90
22202;DHT22;11266;51.522;6.302;2023-01-13T01:42:18;8.80;99.90
22202;DHT22;11266;51.522;6.302;2023-01-13T01:43:22;8.80;99.90
22202;DHT22;11266;51.522;6.302;2023-01-13T01:45:09;8.70;99.90
22202;DHT22;11266;51.522;6.302;2023-01-13T01:45:57;8.60;99.90
22202;DHT22;11266;51.522;6.302;2023-01-13T01:46:43;8.60;99.90
22202;DHT22;11266;51.522;6.302;2023-01-13T01:47:30;8.60;99.90
22202;DHT22;11266;51.522;6.302;2023-01-13T01:48:16;8.60;99.90
22202;DHT22;11266;51.522;6.302;2023-01-13T01:49:22;8.60;99.90
22202;DHT22;11266;51.522;6.302;2023-01-13T01:50:10;8.60;99.90
22202;DHT22;11266;51.522;6.302;2023-01-13T01:50:56;8.60;99.90
22202;DHT22;11266;51.522;6.302;2023-01-13T01:52:43;8.60;99.90
22202;DHT22;11266;51.522;6.302;2023-01-13T01:53:31;8.60;99.90
22202;DHT22;11266;51.522;6.302;2023-01-13T01:54:23;8.70;99.90
22202;DHT22;11266;51.522;6.302;2023-01-13T01:55:18;8.70;99.90
22202;DHT22;11266;51.522;6.302;2023-01-13T01:56:07;8.60;99.90
22202;DHT22;11266;51.522;6.302;2023-01-13T01:56:54;8.60;99.90
22202;DHT22;11266;51.522;6.302;2023-01-13T01:58:48;8.60;99.90
22202;DHT22;11266;51.522;6.302;2023-01-13T01:59:35;8.70;99.90
22202;DHT22;11266;51.522;6.302;2023-01-13T02:00:23;8.70;99.90
22202;DHT22;11266;51.522;6.302;2023-01-13T02:01:12;8.70;99.90
22202;DHT22;11266;51.522;6.302;2023-01-13T02:01:58;8.70;99.90
22202;DHT22;11266;51.522;6.302;2023-01-13T02:02:47;8.80;99.90
22202;DHT22;11266;51.522;6.302;2023-01-13T02:03:36;8.70;99.90
22202;DHT22;11266;51.522;6.302;2023-01-13T02:04:29;8.70;99.90
22202;DHT22;11266;51.522;6.302;2023-01-13T02:05:16;8.70;99.90
22202;DHT22;11266;51.522;6.302;2023-01-13T02:06:02;8.70;99.90
22202;DHT22;11266;51.522;6.302;2023-01-13T02:06:49;8.70;99.90
22202;DHT22;11266;51.522;6.302;2023-01-13T02:07:36;8.60;99.90
22202;DHT22;11266;51.522;6.302;2023-01-13T02:08:22;8.70;99.90
22202;DHT22;11266;51.522;6.302;2023-01-13T02:09:08;8.70;99.90
22202;DHT22;11266;51.522;6.302;2023-01-13T02:09:56;8.70;99.90
22202;DHT22;11266;51.522;6.302;2023-01-13T02:10:45;8.70;99.90
22202;DHT22;11266;51.522;6.302;2023-01-13T02:11:34;8.60;99.90
22202;DHT22;11266;51.522;6.302;2023-01-13T02:12:40;8.70;99.90
22202;DHT22;11266;51.522;6.302;2023-01-13T02:13:26;8.80;99.90
22202;DHT22;11266;51.522;6.302;2023-01-13T02:14:12;8.70;99.90
22202;DHT22;11266;51.522;6.302;2023-01-13T02:16:31;8.60;99.90
22202;DHT22;11266;51.522;6.302;2023-01-13T02:28:29;8.40;99.90
22202;DHT22;11266;51.522;6.302;2023-01-13T02:31:09;8.40;99.90
22202;DHT22;11266;51.522;6.302;2023-01-13T02:32:25;8.40;99.90
22202;DHT22;11266;51.522;6.302;2023-01-13T02:34:41;8.40;99.90
22202;DHT22;11266;51.522;6.302;2023-01-13T02:35:49;8.40;99.90
22202;DHT22;11266;51.522;6.302;2023-01-13T02:37:28;8.40;99.90
22202;DHT22;11266;51.522;6.302;2023-01-13T02:38:21;8.40;99.90
22202;DHT22;11266;51.522;6.302;2023-01-13T02:39:24;8.40;99.90
22202;DHT22;11266;51.522;6.302;2023-01-13T02:41:14;8.20;99.90
22202;DHT22;11266;51.522;6.302;2023-01-13T02:42:29;8.20;99.90
22202;DHT22;11266;51.522;6.302;2023-01-13T02:43:37;8.10;99.90
22202;DHT22;11266;51.522;6.302;2023-01-13T02:45:00;8.20;99.90
22202;DHT22;11266;51.522;6.302;2023-01-13T02:45:56;8.10;99.90
22202;DHT22;11266;51.522;6.302;2023-01-13T02:47:19;8.20;99.90
22202;DHT22;11266;51.522;6.302;2023-01-13T02:48:08;8.20;99.90
22202;DHT22;11266;51.522;6.302;2023-01-13T02:49:03;8.20;99.90
22202;DHT22;11266;51.522;6.302;2023-01-13T02:49:57;8.20;99.90
22202;DHT22;11266;51.522;6.302;2023-01-13T02:50:52;8.20;99.90
22202;DHT22;11266;51.522;6.302;2023-01-13T02:51:41;8.20;99.90
22202;DHT22;11266;51.522;6.302;2023-01-13T02:52:40;8.20;99.90
22202;DHT22;11266;51.522;6.302;2023-01-13T02:53:34;8.20;99.90
22202;DHT22;11266;51.522;6.302;2023-01-13T02:54:26;8.10;99.90
22202;DHT22;11266;51.522;6.302;2023-01-13T02:55:18;8.10;99.90
22202;DHT22;11266;51.522;6.302;2023-01-13T02:56:06;8.10;99.90
22202;DHT22;11266;51.522;6.302;2023-01-13T02:56:53;8.10;99.90
22202;DHT22;11266;51.522;6.302;2023-01-13T02:57:41;8.00;99.90
22202;DHT22;11266;51.522;6.302;2023-01-13T02:58:28;8.00;99.90
22202;DHT22;11266;51.522;6.302;2023-01-13T02:59:16;8.00;99.90
22202;DHT22;11266;51.522;6.302;2023-01-13T03:00:05;8.00;99.90
22202;DHT22;11266;51.522;6.302;2023-01-13T03:00:52;8.00;99.90
22202;DHT22;11266;51.522;6.302;2023-01-13T03:01:41;7.90;99.90
22202;DHT22;11266;51.522;6.302;2023-01-13T03:02:27;8.00;99.90
22202;DHT22;11266;51.522;6.302;2023-01-13T03:03:15;8.00;99.90
22202;DHT22;11266;51.522;6.302;2023-01-13T03:04:14;8.00;99.90
22202;DHT22;11266;51.522;6.302;2023-01-13T03:05:18;7.90;99.90
22202;DHT22;11266;51.522;6.302;2023-01-13T03:06:46;7.90;99.90
22202;DHT22;11266;51.522;6.302;2023-01-13T03:11:24;7.80;99.90
22202;DHT22;11266;51.522;6.302;2023-01-13T03:13:00;7.80;99.90
22202;DHT22;11266;51.522;6.302;2023-01-13T03:14:36;7.80;99.90
22202;DHT22;11266;51.522;6.302;2023-01-13T03:15:41;7.80;99.90
22202;DHT22;11266;51.522;6.302;2023-01-13T03:17:43;7.80;99.90
22202;DHT22;11266;51.522;6.302;2023-01-13T03:21:03;7.80;99.90
22202;DHT22;11266;51.522;6.302;2023-01-13T03:22:56;7.90;99.90
22202;DHT22;11266;51.522;6.302;2023-01-13T03:23:56;7.90;99.90
22202;DHT22;11266;51.522;6.302;2023-01-13T03:24:46;7.90;99.90
22202;DHT22;11266;51.522;6.302;2023-01-13T03:25:38;7.90;99.90
22202;DHT22;11266;51.522;6.302;2023-01-13T03:26:43;7.90;99.90
22202;DHT22;11266;51.522;6.302;2023-01-13T03:28:38;7.90;99.90
22202;DHT22;11266;51.522;6.302;2023-01-13T03:30:28;7.90;99.90
22202;DHT22;11266;51.522;6.302;2023-01-13T03:31:22;7.90;99.90
22202;DHT22;11266;51.522;6.302;2023-01-13T03:32:16;7.90;99.90
22202;DHT22;11266;51.522;6.302;2023-01-13T03:33:14;7.80;99.90
22202;DHT22;11266;51.522;6.302;2023-01-13T03:34:05;7.90;99.90
22202;DHT22;11266;51.522;6.302;2023-01-13T03:35:50;8.00;99.90
22202;DHT22;11266;51.522;6.302;2023-01-13T03:36:38;7.90;99.90
22202;DHT22;11266;51.522;6.302;2023-01-13T03:37:31;8.00;99.90
22202;DHT22;11266;51.522;6.302;2023-01-13T03:38:26;8.00;99.90
22202;DHT22;11266;51.522;6.302;2023-01-13T03:39:19;8.00;99.90
22202;DHT22;11266;51.522;6.302;2023-01-13T03:40:27;8.00;99.90
22202;DHT22;11266;51.522;6.302;2023-01-13T03:41:36;8.00;99.90
22202;DHT22;11266;51.522;6.302;2023-01-13T03:42:24;8.00;99.90
22202;DHT22;11266;51.522;6.302;2023-01-13T03:43:14;8.00;99.90
22202;DHT22;11266;51.522;6.302;2023-01-13T03:44:30;8.00;99.90
22202;DHT22;11266;51.522;6.302;2023-01-13T03:45:19;8.00;99.90
22202;DHT22;11266;51.522;6.302;2023-01-13T03:46:12;8.10;99.90
22202;DHT22;11266;51.522;6.302;2023-01-13T03:48:11;8.10;99.90
22202;DHT22;11266;51.522;6.302;2023-01-13T03:49:01;8.10;99.90
22202;DHT22;11266;51.522;6.302;2023-01-13T03:51:10;8.10;99.90
22202;DHT22;11266;51.522;6.302;2023-01-13T03:52:02;8.10;99.90
22202;DHT22;11266;51.522;6.302;2023-01-13T03:52:54;8.20;99.90
22202;DHT22;11266;51.522;6.302;2023-01-13T03:53:47;8.10;99.90
22202;DHT22;11266;51.522;6.302;2023-01-13T03:54:43;8.20;99.90
22202;DHT22;11266;51.522;6.302;2023-01-13T03:55:36;8.10;99.90
22202;DHT22;11266;51.522;6.302;2023-01-13T03:56:30;8.10;99.90
22202;DHT22;11266;51.522;6.302;2023-01-13T03:57:21;8.10;99.90
22202;DHT22;11266;51.522;6.302;2023-01-13T03:58:27;8.10;99.90
22202;DHT22;11266;51.522;6.302;2023-01-13T03:59:21;8.10;99.90
22202;DHT22;11266;51.522;6.302;2023-01-13T04:00:09;8.10;99.90
22202;DHT22;11266;51.522;6.302;2023-01-13T04:01:07;8.10;99.90
22202;DHT22;11266;51.522;6.302;2023-01-13T04:03:02;8.10;99.90
22202;DHT22;11266;51.522;6.302;2023-01-13T04:04:12;8.10;99.90
22202;DHT22;11266;51.522;6.302;2023-01-13T04:05:06;8.10;99.90
22202;DHT22;11266;51.522;6.302;2023-01-13T04:05:58;8.10;99.90
22202;DHT22;11266;51.522;6.302;2023-01-13T04:07:08;8.10;99.90
22202;DHT22;11266;51.522;6.302;2023-01-13T04:08:17;8.10;99.90
22202;DHT22;11266;51.522;6.302;2023-01-13T04:09:29;8.10;99.90
22202;DHT22;11266;51.522;6.302;2023-01-13T04:10:27;8.20;99.90
22202;DHT22;11266;51.522;6.302;2023-01-13T04:11:33;8.20;99.90
22202;DHT22;11266;51.522;6.302;2023-01-13T04:13:38;8.20;99.90
22202;DHT22;11266;51.522;6.302;2023-01-13T04:14:27;8.20;99.90
22202;DHT22;11266;51.522;6.302;2023-01-13T04:15:15;8.20;99.90
22202;DHT22;11266;51.522;6.302;2023-01-13T04:16:01;8.30;99.90
22202;DHT22;11266;51.522;6.302;2023-01-13T04:16:47;8.20;99.90
22202;DHT22;11266;51.522;6.302;2023-01-13T04:17:33;8.20;99.90
22202;DHT22;11266;51.522;6.302;2023-01-13T04:19:07;8.30;99.90
22202;DHT22;11266;51.522;6.302;2023-01-13T04:19:52;8.30;99.90
22202;DHT22;11266;51.522;6.302;2023-01-13T04:20:39;8.20;99.90
22202;DHT22;11266;51.522;6.302;2023-01-13T04:21:25;8.20;99.90
22202;DHT22;11266;51.522;6.302;2023-01-13T04:22:10;8.20;99.90
22202;DHT22;11266;51.522;6.302;2023-01-13T04:22:58;8.20;99.90
22202;DHT22;11266;51.522;6.302;2023-01-13T04:23:44;8.20;99.90
22202;DHT22;11266;51.522;6.302;2023-01-13T04:24:30;8.20;99.90
22202;DHT22;11266;51.522;6.302;2023-01-13T04:25:16;8.30;99.90
22202;DHT22;11266;51.522;6.302;2023-01-13T04:26:02;8.20;99.90
22202;DHT22;11266;51.522;6.302;2023-01-13T04:26:50;8.20;99.90
22202;DHT22;11266;51.522;6.302;2023-01-13T04:27:36;8.30;99.90
22202;DHT22;11266;51.522;6.302;2023-01-13T04:28:22;8.30;99.90
22202;DHT22;11266;51.522;6.302;2023-01-13T04:29:07;8.30;99.90
22202;DHT22;11266;51.522;6.302;2023-01-13T04:29:53;8.20;99.90
22202;DHT22;11266;51.522;6.302;2023-01-13T04:30:39;8.20;99.90
22202;DHT22;11266;51.522;6.302;2023-01-13T04:31:24;8.10;99.90
22202;DHT22;11266;51.522;6.302;2023-01-13T04:32:10;8.10;99.90
22202;DHT22;11266;51.522;6.302;2023-01-13T04:32:56;8.20;99.90
22202;DHT22;11266;51.522;6.302;2023-01-13T04:33:41;8.20;99.90
22202;DHT22;11266;51.522;6.302;2023-01-13T04:34:27;8.20;99.90
22202;DHT22;11266;51.522;6.302;2023-01-13T04:35:13;8.20;99.90
22202;DHT22;11266;51.522;6.302;2023-01-13T04:35:58;8.20;99.90
22202;DHT22;11266;51.522;6.302;2023-01-13T04:36:44;8.20;99.90
22202;DHT22;11266;51.522;6.302;2023-01-13T04:37:30;8.20;99.90
22202;DHT22;11266;51.522;6.302;2023-01-13T04:38:17;8.10;99.90
22202;DHT22;11266;51.522;6.302;2023-01-13T04:39:03;8.20;99.90
22202;DHT22;11266;51.522;6.302;2023-01-13T04:39:49;8.20;99.90
22202;DHT22;11266;51.522;6.302;2023-01-13T04:40:35;8.10;99.90
22202;DHT22;11266;51.522;6.302;2023-01-13T04:41:23;8.10;99.90
22202;DHT22;11266;51.522;6.302;2023-01-13T04:42:08;8.10;99.90
22202;DHT22;11266;51.522;6.302;2023-01-13T04:42:54;8.10;99.90
22202;DHT22;11266;51.522;6.302;2023-01-13T04:43:40;8.10;99.90
22202;DHT22;11266;51.522;6.302;2023-01-13T04:44:26;8.10;99.90
22202;DHT22;11266;51.522;6.302;2023-01-13T04:45:14;8.10;99.90
22202;DHT22;11266;51.522;6.302;2023-01-13T04:46:00;8.10;99.90
22202;DHT22;11266;51.522;6.302;2023-01-13T04:46:46;8.10;99.90
22202;DHT22;11266;51.522;6.302;2023-01-13T04:47:31;8.00;99.90
22202;DHT22;11266;51.522;6.302;2023-01-13T04:48:17;8.00;99.90
22202;DHT22;11266;51.522;6.302;2023-01-13T04:49:03;7.90;99.90
22202;DHT22;11266;51.522;6.302;2023-01-13T04:49:48;8.00;99.90
22202;DHT22;11266;51.522;6.302;2023-01-13T04:50:36;8.00;99.90
22202;DHT22;11266;51.522;6.302;2023-01-13T04:51:22;8.00;99.90
22202;DHT22;11266;51.522;6.302;2023-01-13T04:52:07;8.00;99.90
22202;DHT22;11266;51.522;6.302;2023-01-13T04:52:54;8.00;99.90
22202;DHT22;11266;51.522;6.302;2023-01-13T04:53:40;8.00;99.90
22202;DHT22;11266;51.522;6.302;2023-01-13T04:54:25;8.00;99.90
22202;DHT22;11266;51.522;6.302;2023-01-13T04:55:11;8.00;99.90
22202;DHT22;11266;51.522;6.302;2023-01-13T04:55:57;8.00;99.90
22202;DHT22;11266;51.522;6.302;2023-01-13T04:56:42;7.90;99.90
22202;DHT22;11266;51.522;6.302;2023-01-13T04:57:28;7.90;99.90
22202;DHT22;11266;51.522;6.302;2023-01-13T04:58:14;7.90;99.90
22202;DHT22;11266;51.522;6.302;2023-01-13T04:58:59;8.00;99.90
22202;DHT22;11266;51.522;6.302;2023-01-13T04:59:45;8.00;99.90
22202;DHT22;11266;51.522;6.302;2023-01-13T05:00:31;7.90;99.90
22202;DHT22;11266;51.522;6.302;2023-01-13T05:01:17;7.90;99.90
22202;DHT22;11266;51.522;6.302;2023-01-13T05:02:02;7.90;99.90
22202;DHT22;11266;51.522;6.302;2023-01-13T05:02:49;8.00;99.90
22202;DHT22;11266;51.522;6.302;2023-01-13T05:03:37;8.00;99.90
22202;DHT22;11266;51.522;6.302;2023-01-13T05:04:23;8.00;99.90
22202;DHT22;11266;51.522;6.302;2023-01-13T05:05:09;8.00;99.90
22202;DHT22;11266;51.522;6.302;2023-01-13T05:05:55;8.00;99.90
22202;DHT22;11266;51.522;6.302;2023-01-13T05:06:43;8.00;99.90
22202;DHT22;11266;51.522;6.302;2023-01-13T05:07:28;8.00;99.90
22202;DHT22;11266;51.522;6.302;2023-01-13T05:08:14;8.00;99.90
22202;DHT22;11266;51.522;6.302;2023-01-13T05:08:59;8.00;99.90
22202;DHT22;11266;51.522;6.302;2023-01-13T05:09:45;8.00;99.90
22202;DHT22;11266;51.522;6.302;2023-01-13T05:10:31;8.00;99.90
22202;DHT22;11266;51.522;6.302;2023-01-13T05:11:19;8.00;99.90
22202;DHT22;11266;51.522;6.302;2023-01-13T05:12:23;7.90;99.90
22202;DHT22;11266;51.522;6.302;2023-01-13T05:13:27;7.90;99.90
22202;DHT22;11266;51.522;6.302;2023-01-13T05:14:32;7.90;99.90
22202;DHT22;11266;51.522;6.302;2023-01-13T05:15:37;7.90;99.90
22202;DHT22;11266;51.522;6.302;2023-01-13T05:16:49;7.90;99.90
22202;DHT22;11266;51.522;6.302;2023-01-13T05:17:47;7.90;99.90
22202;DHT22;11266;51.522;6.302;2023-01-13T05:18:34;7.90;99.90
22202;DHT22;11266;51.522;6.302;2023-01-13T05:19:19;7.90;99.90
22202;DHT22;11266;51.522;6.302;2023-01-13T05:20:06;8.00;99.90
22202;DHT22;11266;51.522;6.302;2023-01-13T05:20:52;7.90;99.90
22202;DHT22;11266;51.522;6.302;2023-01-13T05:21:37;8.00;99.90
22202;DHT22;11266;51.522;6.302;2023-01-13T05:22:43;8.00;99.90
22202;DHT22;11266;51.522;6.302;2023-01-13T05:23:47;8.00;99.90
22202;DHT22;11266;51.522;6.302;2023-01-13T05:24:59;8.00;99.90
22202;DHT22;11266;51.522;6.302;2023-01-13T05:26:04;7.90;99.90
22202;DHT22;11266;51.522;6.302;2023-01-13T05:26:49;7.90;99.90
22202;DHT22;11266;51.522;6.302;2023-01-13T05:27:35;7.80;99.90
22202;DHT22;11266;51.522;6.302;2023-01-13T05:28:23;7.90;99.90
22202;DHT22;11266;51.522;6.302;2023-01-13T05:29:09;7.90;99.90
22202;DHT22;11266;51.522;6.302;2023-01-13T05:29:57;7.90;99.90
22202;DHT22;11266;51.522;6.302;2023-01-13T05:30:44;7.90;99.90
22202;DHT22;11266;51.522;6.302;2023-01-13T05:31:30;7.90;99.90
22202;DHT22;11266;51.522;6.302;2023-01-13T05:32:18;7.90;99.90
22202;DHT22;11266;51.522;6.302;2023-01-13T05:33:04;7.90;99.90
22202;DHT22;11266;51.522;6.302;2023-01-13T05:33:51;7.90;99.90
22202;DHT22;11266;51.522;6.302;2023-01-13T05:34:37;8.00;99.90
22202;DHT22;11266;51.522;6.302;2023-01-13T05:35:23;8.00;99.90
22202;DHT22;11266;51.522;6.302;2023-01-13T05:36:09;7.90;99.90
22202;DHT22;11266;51.522;6.302;2023-01-13T05:36:55;8.00;99.90
22202;DHT22;11266;51.522;6.302;2023-01-13T05:37:44;8.00;99.90
22202;DHT22;11266;51.522;6.302;2023-01-13T05:38:30;7.90;99.90
22202;DHT22;11266;51.522;6.302;2023-01-13T05:39:16;7.90;99.90
22202;DHT22;11266;51.522;6.302;2023-01-13T05:40:02;7.90;99.90
22202;DHT22;11266;51.522;6.302;2023-01-13T05:41:07;7.90;99.90
22202;DHT22;11266;51.522;6.302;2023-01-13T05:42:11;7.90;99.90
22202;DHT22;11266;51.522;6.302;2023-01-13T05:43:17;7.90;99.90
22202;DHT22;11266;51.522;6.302;2023-01-13T05:44:09;8.00;99.90
22202;DHT22;11266;51.522;6.302;2023-01-13T05:44:54;7.90;99.90
22202;DHT22;11266;51.522;6.302;2023-01-13T05:45:40;7.90;99.90
22202;DHT22;11266;51.522;6.302;2023-01-13T05:46:29;7.90;99.90
22202;DHT22;11266;51.522;6.302;2023-01-13T05:47:14;7.90;99.90
22202;DHT22;11266;51.522;6.302;2023-01-13T05:48:00;7.90;99.90
22202;DHT22;11266;51.522;6.302;2023-01-13T05:48:45;7.90;99.90
22202;DHT22;11266;51.522;6.302;2023-01-13T05:49:32;7.80;99.90
22202;DHT22;11266;51.522;6.302;2023-01-13T05:50:18;7.80;99.90
22202;DHT22;11266;51.522;6.302;2023-01-13T05:51:05;7.80;99.90
22202;DHT22;11266;51.522;6.302;2023-01-13T05:51:51;7.80;99.90
22202;DHT22;11266;51.522;6.302;2023-01-13T05:52:37;7.80;99.90
22202;DHT22;11266;51.522;6.302;2023-01-13T05:53:23;7.80;99.90
22202;DHT22;11266;51.522;6.302;2023-01-13T05:54:09;7.80;99.90
22202;DHT22;11266;51.522;6.302;2023-01-13T05:54:54;7.80;99.90
22202;DHT22;11266;51.522;6.302;2023-01-13T05:55:41;7.80;99.90
22202;DHT22;11266;51.522;6.302;2023-01-13T05:56:27;7.80;99.90
22202;DHT22;11266;51.522;6.302;2023-01-13T05:57:13;7.70;99.90
22202;DHT22;11266;51.522;6.302;2023-01-13T05:58:00;7.70;99.90
22202;DHT22;11266;51.522;6.302;2023-01-13T05:58:46;7.80;99.90